Liledown, North Carolina
Current Conditions -  °F | °C
As of 12:53 AM on Sunday 21 Dec 2014 (Local Time) from KHKY Reporting Station
Overcast Overcast  
Wind Chill: 41°   Ceiling: 1700
Heat Index: 41°   Visibility: 10mi
Dew Point: 33°   Wind: 0mph
Humidity: 73%   Direction: NA
Pressure: 30.23"   Gusts: NA
Location:  35.9243°N, 81.216°W
Report Text: KHKY 210553Z AUTO 00000KT 10SM OVC017 05/01 A3023 RMK AO2 SLP232 T00500006 10061 20050 50002
Loading
Personal Weather Stations






























Interactive Weather Map New forecast layout! Learn more

10-Day Weather Forecast

Advertisements
Track Severe Weather on mobile